createdAt,value
2022-12-05T00:01:25.876Z,25.10
2022-12-05T00:03:53.813Z,25.25
2022-12-05T00:06:21.075Z,23.55
2022-12-05T00:08:48.243Z,24.02
2022-12-05T00:11:16.187Z,23.42
2022-12-05T00:13:43.184Z,23.48
2022-12-05T00:16:11.083Z,24.10
2022-12-05T00:18:38.268Z,24.38
2022-12-05T00:21:05.367Z,23.08
2022-12-05T00:28:23.116Z,25.15
2022-12-05T00:30:49.810Z,25.00
2022-12-05T00:33:16.397Z,23.60
2022-12-05T00:35:43.079Z,24.77
2022-12-05T00:38:09.738Z,23.15
2022-12-05T00:40:36.634Z,22.42
2022-12-05T00:43:03.229Z,23.75
2022-12-05T00:47:55.345Z,22.00
2022-12-05T00:50:22.050Z,22.23
2022-12-05T00:52:49.220Z,23.73
2022-12-05T00:55:15.947Z,22.45
2022-12-05T00:57:42.644Z,22.73
2022-12-05T01:00:09.472Z,22.08
2022-12-05T01:02:36.104Z,22.95
2022-12-05T01:05:02.956Z,23.27
2022-12-05T01:07:29.658Z,24.13
2022-12-05T01:09:56.693Z,22.67
2022-12-05T01:12:23.509Z,23.48
2022-12-05T01:14:50.132Z,23.20
2022-12-05T01:17:16.787Z,23.55
2022-12-05T01:19:43.377Z,24.00
2022-12-05T01:22:10.066Z,23.55
2022-12-05T01:24:36.745Z,24.08
2022-12-05T01:27:03.442Z,22.15
2022-12-05T01:29:30.184Z,24.27
2022-12-05T01:31:56.991Z,23.17
2022-12-05T01:34:23.918Z,22.73
2022-12-05T01:36:50.686Z,22.13
2022-12-05T01:39:17.490Z,22.95
2022-12-05T01:41:46.145Z,23.13
2022-12-05T01:44:12.898Z,23.40
2022-12-05T01:46:43.666Z,22.73
2022-12-05T01:49:13.553Z,23.60
2022-12-05T01:51:42.778Z,24.17
2022-12-05T01:54:10.328Z,24.08
2022-12-05T01:59:04.038Z,22.77
2022-12-05T02:01:30.851Z,24.90
2022-12-05T02:06:24.330Z,24.45
2022-12-05T02:08:51.945Z,22.92
2022-12-05T02:11:18.985Z,25.13
2022-12-05T02:14:04.096Z,23.50
2022-12-05T02:16:56.351Z,24.25
2022-12-05T02:19:41.575Z,22.83
2022-12-05T02:22:21.034Z,21.88
2022-12-05T02:25:06.673Z,24.77
2022-12-05T02:27:36.060Z,23.25
2022-12-05T02:30:13.017Z,23.98
2022-12-05T02:32:45.819Z,21.83
2022-12-05T02:35:16.408Z,24.05
2022-12-05T02:37:43.439Z,22.50
2022-12-05T02:45:11.273Z,23.15
2022-12-05T02:52:33.758Z,23.63
2022-12-05T02:57:26.073Z,21.98
2022-12-05T02:59:52.793Z,24.27
2022-12-05T03:02:24.469Z,23.38
2022-12-05T03:07:17.667Z,22.42
2022-12-05T03:09:47.124Z,22.50
2022-12-05T03:12:18.454Z,23.83
2022-12-05T03:14:51.882Z,23.85
2022-12-05T03:19:50.230Z,23.80
2022-12-05T03:32:33.721Z,23.00
2022-12-05T03:35:17.833Z,22.58
2022-12-05T03:37:51.071Z,22.42
2022-12-05T03:42:52.742Z,22.00
2022-12-05T03:45:22.655Z,23.55
2022-12-05T03:50:26.615Z,23.55
2022-12-05T03:53:19.263Z,24.88
2022-12-05T03:55:47.339Z,22.85
2022-12-05T03:58:26.409Z,22.55
2022-12-05T04:00:53.823Z,22.80
2022-12-05T04:03:23.096Z,24.02
2022-12-05T04:05:54.287Z,23.05
2022-12-05T04:08:27.096Z,23.63
2022-12-05T04:13:32.576Z,24.33
2022-12-05T04:16:20.837Z,23.58
2022-12-05T04:21:38.945Z,24.05
2022-12-05T04:29:51.968Z,24.67
2022-12-05T04:37:16.784Z,25.55
2022-12-05T04:39:53.341Z,24.45
2022-12-05T04:42:22.185Z,24.67
2022-12-05T04:44:50.883Z,23.15
2022-12-05T04:47:19.033Z,24.73
2022-12-05T04:49:50.657Z,23.40
2022-12-05T04:52:20.500Z,24.65
2022-12-05T04:54:49.226Z,25.55
2022-12-05T04:57:18.833Z,23.95
2022-12-05T04:59:45.780Z,23.77
2022-12-05T05:02:15.049Z,23.73
2022-12-05T05:09:38.110Z,24.33
2022-12-05T05:16:56.476Z,23.23
2022-12-05T05:19:23.329Z,24.40
2022-12-05T05:24:16.428Z,25.55
2022-12-05T05:26:44.110Z,24.38
2022-12-05T05:31:38.648Z,25.90
2022-12-05T05:34:09.687Z,25.13
2022-12-05T05:36:37.445Z,24.13
2022-12-05T05:39:04.691Z,26.25
2022-12-05T05:41:32.685Z,24.27
2022-12-05T05:43:59.768Z,24.70
2022-12-05T05:46:28.162Z,25.45
2022-12-05T05:48:54.896Z,23.88
2022-12-05T05:53:48.155Z,24.70
2022-12-05T05:56:21.163Z,26.80
2022-12-05T06:01:20.490Z,25.10
2022-12-05T06:03:47.519Z,24.33
2022-12-05T06:08:41.945Z,24.42
2022-12-05T06:11:10.466Z,22.67
2022-12-05T06:13:37.138Z,23.38
2022-12-05T06:16:10.943Z,23.13
2022-12-05T06:18:37.572Z,23.58
2022-12-05T06:21:05.869Z,23.77
2022-12-05T06:23:32.540Z,24.35
2022-12-05T06:28:25.873Z,24.60
2022-12-05T06:30:52.820Z,24.30
2022-12-05T06:33:20.095Z,25.33
2022-12-05T06:35:47.298Z,25.40
2022-12-05T06:38:14.060Z,22.95
2022-12-05T06:40:41.909Z,24.17
2022-12-05T06:43:08.585Z,24.60
2022-12-05T06:45:37.548Z,24.20
2022-12-05T06:48:04.331Z,26.52
2022-12-05T06:50:30.939Z,24.42
2022-12-05T06:52:57.614Z,24.30
2022-12-05T07:00:41.718Z,25.60
2022-12-05T07:03:10.724Z,23.60
2022-12-05T07:05:37.386Z,23.73
2022-12-05T07:10:29.721Z,23.20
2022-12-05T07:12:56.562Z,23.27
2022-12-05T07:20:20.715Z,27.10
2022-12-05T07:27:40.075Z,25.33
2022-12-05T07:30:07.846Z,24.42
2022-12-05T07:32:37.280Z,25.65
2022-12-05T07:35:04.248Z,24.63
2022-12-05T07:37:32.042Z,24.90
2022-12-05T07:47:18.108Z,27.15
2022-12-05T07:49:49.773Z,27.15
2022-12-05T07:54:44.947Z,26.08
2022-12-05T07:57:12.181Z,24.98
2022-12-05T07:59:40.527Z,24.52
2022-12-05T08:02:10.075Z,25.48
2022-12-05T08:04:39.493Z,25.73
2022-12-05T08:07:07.455Z,24.85
2022-12-05T08:09:36.977Z,27.48
2022-12-05T08:12:28.441Z,26.85
2022-12-05T08:14:59.211Z,27.77
2022-12-05T08:17:28.676Z,29.83
2022-12-05T08:20:07.675Z,28.08
2022-12-05T08:27:31.075Z,27.95
2022-12-05T08:32:27.663Z,31.00
2022-12-05T08:34:54.761Z,27.27
2022-12-05T08:49:37.910Z,26.02
2022-12-05T08:54:30.060Z,28.35
2022-12-05T08:56:56.791Z,28.85
2022-12-05T08:59:23.428Z,27.15
2022-12-05T09:06:41.595Z,27.60
2022-12-05T09:09:11.468Z,26.27
2022-12-05T09:11:41.092Z,26.48
2022-12-05T09:14:07.722Z,25.65
2022-12-05T09:19:01.759Z,26.38
2022-12-05T09:21:29.848Z,26.13
2022-12-05T09:23:58.362Z,28.85
2022-12-05T09:26:26.397Z,27.27
2022-12-05T09:28:53.317Z,26.83
2022-12-05T09:31:21.431Z,28.50
2022-12-05T09:33:48.951Z,28.20
2022-12-05T09:36:19.940Z,29.30
2022-12-05T09:38:47.087Z,27.80
2022-12-05T09:41:42.945Z,27.73
2022-12-05T09:44:15.037Z,28.52
2022-12-05T09:46:47.966Z,28.65
2022-12-05T09:51:43.405Z,28.52
2022-12-05T09:54:10.754Z,27.88
2022-12-05T09:56:38.359Z,28.73
2022-12-05T09:59:05.808Z,28.95
2022-12-05T10:01:47.552Z,27.52
2022-12-05T10:04:29.247Z,29.95
2022-12-05T10:07:14.453Z,28.48
2022-12-05T10:09:53.313Z,29.40
2022-12-05T10:12:38.069Z,27.52
2022-12-05T10:20:13.517Z,28.77
2022-12-05T10:22:48.340Z,29.15
2022-12-05T10:27:48.733Z,28.55
2022-12-05T10:30:17.000Z,27.08
2022-12-05T10:32:53.881Z,28.90
2022-12-05T10:35:24.788Z,28.23
2022-12-05T10:40:34.734Z,28.10
2022-12-05T10:43:01.913Z,28.27
2022-12-05T10:45:28.609Z,26.52
2022-12-05T10:47:56.337Z,28.38
2022-12-05T10:50:23.059Z,29.10
2022-12-05T10:52:50.329Z,30.02
2022-12-05T10:55:18.688Z,29.45
2022-12-05T11:02:51.013Z,30.35
2022-12-05T11:05:27.375Z,30.25
2022-12-05T11:07:55.372Z,30.05
2022-12-05T11:10:26.383Z,30.05
2022-12-05T11:12:55.122Z,29.33
2022-12-05T11:15:26.078Z,30.08
2022-12-05T11:17:53.516Z,29.77
2022-12-05T11:20:33.407Z,29.60
2022-12-05T11:23:15.502Z,29.70
2022-12-05T11:28:16.568Z,32.47
2022-12-05T11:30:58.778Z,29.92
2022-12-05T11:33:27.622Z,29.77
2022-12-05T11:36:01.917Z,33.67
2022-12-05T11:38:32.477Z,31.02
2022-12-05T11:41:17.734Z,29.00
2022-12-05T11:46:26.893Z,30.55
2022-12-05T11:49:05.052Z,38.30
2022-12-05T11:51:31.739Z,32.35
2022-12-05T11:54:01.398Z,30.50
2022-12-05T11:56:38.872Z,31.80
2022-12-05T11:59:17.393Z,29.40
2022-12-05T12:02:07.110Z,30.95
2022-12-05T12:04:36.786Z,28.65
2022-12-05T12:07:11.017Z,28.83
2022-12-05T12:09:47.033Z,28.77
2022-12-05T12:14:50.568Z,30.23
2022-12-05T12:19:59.053Z,28.98
2022-12-05T12:22:42.876Z,29.50
2022-12-05T12:25:24.117Z,29.00
2022-12-05T12:28:04.488Z,28.55
2022-12-05T12:30:46.184Z,28.15
2022-12-05T12:38:22.283Z,28.63
2022-12-05T12:40:53.760Z,29.55
2022-12-05T12:43:52.552Z,29.45
2022-12-05T12:46:27.874Z,30.23
2022-12-05T12:49:04.073Z,31.20
2022-12-05T12:51:32.023Z,29.25
2022-12-05T12:54:29.272Z,29.58
2022-12-05T12:57:13.905Z,29.65
2022-12-05T12:59:41.967Z,29.15
2022-12-05T13:05:01.379Z,30.17
2022-12-05T13:07:35.618Z,30.35
2022-12-05T13:10:11.701Z,28.17
2022-12-05T13:12:39.324Z,28.40
2022-12-05T13:15:08.143Z,28.58
2022-12-05T13:22:27.483Z,29.92
2022-12-05T13:24:54.807Z,28.75
2022-12-05T13:27:27.516Z,27.85
2022-12-05T13:29:54.447Z,30.70
2022-12-05T13:34:56.242Z,28.02
2022-12-05T13:37:44.180Z,28.55
2022-12-05T13:40:47.976Z,28.00
2022-12-05T13:43:22.493Z,29.20
2022-12-05T13:46:06.984Z,29.02
2022-12-05T13:51:10.428Z,27.50
2022-12-05T13:53:40.329Z,28.40
2022-12-05T13:56:24.821Z,28.15
2022-12-05T13:58:52.497Z,28.17
2022-12-05T14:01:45.537Z,28.95
2022-12-05T14:07:08.396Z,27.45
2022-12-05T14:12:17.777Z,27.88
2022-12-05T14:15:00.590Z,28.00
2022-12-05T14:20:16.938Z,28.60
2022-12-05T14:22:48.105Z,28.88
2022-12-05T14:28:28.246Z,27.70
2022-12-05T14:33:42.376Z,27.77
2022-12-05T14:36:16.058Z,26.65
2022-12-05T14:41:17.519Z,27.05
2022-12-05T14:48:51.030Z,29.45
2022-12-05T14:51:32.771Z,28.77
2022-12-05T14:54:13.349Z,26.75
2022-12-05T14:56:41.703Z,26.70
2022-12-05T15:06:43.398Z,28.42
2022-12-05T15:09:36.455Z,26.63
2022-12-05T15:16:59.900Z,27.27
2022-12-05T15:19:52.521Z,38.75
2022-12-05T15:22:21.396Z,40.08
2022-12-05T15:24:48.296Z,34.75
2022-12-05T15:27:16.797Z,33.85
2022-12-05T15:29:43.486Z,30.52
2022-12-05T15:32:10.163Z,27.75
2022-12-05T15:37:15.966Z,28.23
2022-12-05T15:42:42.610Z,28.02
2022-12-05T15:45:12.693Z,29.10
2022-12-05T15:47:39.631Z,29.80
2022-12-05T15:52:37.605Z,27.98
2022-12-05T16:00:17.857Z,29.75
2022-12-05T16:02:56.713Z,29.25
2022-12-05T16:05:31.418Z,28.15
2022-12-05T16:07:58.396Z,30.83
2022-12-05T16:10:29.484Z,37.80
2022-12-05T16:15:30.687Z,46.05
2022-12-05T16:18:01.104Z,36.10
2022-12-05T16:23:02.031Z,27.90
2022-12-05T16:25:30.624Z,27.55
2022-12-05T16:28:04.089Z,55.65
2022-12-05T16:30:31.710Z,43.58
2022-12-05T16:32:59.894Z,39.40
2022-12-05T16:38:17.432Z,37.65
2022-12-05T16:43:18.230Z,35.80
2022-12-05T16:48:17.143Z,35.40
2022-12-05T16:50:43.852Z,32.92
2022-12-05T17:00:33.943Z,29.30
2022-12-05T17:03:25.883Z,31.60
2022-12-05T17:08:14.082Z,30.70
2022-12-05T17:10:42.038Z,33.17
2022-12-05T17:13:09.695Z,31.95
2022-12-05T17:15:36.694Z,33.45
2022-12-05T17:18:07.434Z,29.60
2022-12-05T17:25:25.413Z,30.77
2022-12-05T17:27:52.295Z,29.15
2022-12-05T17:30:19.120Z,27.80
2022-12-05T17:32:46.180Z,28.63
2022-12-05T17:35:15.114Z,29.35
2022-12-05T17:37:41.866Z,28.75
2022-12-05T17:40:08.987Z,30.73
2022-12-05T17:45:08.700Z,28.60
2022-12-05T17:47:35.725Z,28.35
2022-12-05T17:50:02.862Z,27.58
2022-12-05T17:52:29.769Z,30.13
2022-12-05T17:54:56.822Z,29.75
2022-12-05T17:57:23.737Z,30.05
2022-12-05T17:59:50.416Z,31.02
2022-12-05T18:02:18.972Z,29.10
2022-12-05T18:12:03.011Z,28.85
2022-12-05T18:14:30.267Z,29.02
2022-12-05T18:16:57.040Z,30.95
2022-12-05T18:19:23.795Z,33.85
2022-12-05T18:21:51.058Z,31.25
2022-12-05T18:24:18.027Z,27.48
2022-12-05T18:26:44.691Z,25.80
2022-12-05T18:29:11.311Z,26.42
2022-12-05T18:31:41.710Z,28.85
2022-12-05T18:34:09.443Z,30.02
2022-12-05T18:36:36.049Z,26.70
2022-12-05T18:39:02.770Z,24.98
2022-12-05T18:41:29.426Z,25.92
2022-12-05T18:48:48.073Z,25.55
2022-12-05T18:51:16.131Z,22.63
2022-12-05T18:56:27.637Z,25.35
2022-12-05T18:58:56.263Z,24.10
2022-12-05T19:01:23.273Z,31.58
2022-12-05T19:03:51.629Z,24.13
2022-12-05T19:06:21.904Z,23.02
2022-12-05T19:08:48.687Z,34.72
2022-12-05T19:11:19.462Z,26.90
2022-12-05T19:13:50.679Z,28.58
2022-12-05T19:21:09.553Z,31.17
2022-12-05T19:23:36.603Z,25.15
2022-12-05T19:26:11.936Z,28.60
2022-12-05T19:28:49.631Z,21.80
2022-12-05T19:31:28.323Z,34.67
2022-12-05T19:33:55.982Z,29.20
2022-12-05T19:36:25.065Z,23.42
2022-12-05T19:38:52.209Z,20.27
2022-12-05T19:41:23.190Z,20.00
2022-12-05T19:43:53.754Z,23.20
2022-12-05T19:51:22.101Z,21.92
2022-12-05T19:53:49.118Z,27.05
2022-12-05T19:58:41.991Z,25.40
2022-12-05T20:01:09.098Z,25.98
2022-12-05T20:03:41.273Z,23.52
2022-12-05T20:06:08.350Z,25.05
2022-12-05T20:08:38.405Z,35.58
2022-12-05T20:11:09.575Z,29.25
2022-12-05T20:13:47.580Z,24.02
2022-12-05T20:18:41.246Z,44.20
2022-12-05T20:21:09.909Z,28.40
2022-12-05T20:26:10.397Z,20.42
2022-12-05T20:28:37.723Z,19.80
2022-12-05T20:31:05.662Z,29.10
2022-12-05T20:33:36.273Z,24.40
2022-12-05T20:38:32.657Z,26.23
2022-12-05T20:41:00.554Z,31.08
2022-12-05T20:43:27.419Z,30.83
2022-12-05T20:48:21.951Z,30.08
2022-12-05T20:50:48.623Z,29.17
2022-12-05T20:58:06.063Z,22.25
2022-12-05T21:00:32.912Z,23.52
2022-12-05T21:02:59.607Z,30.65
2022-12-05T21:05:26.333Z,32.40
2022-12-05T21:07:52.963Z,28.10
2022-12-05T21:10:22.424Z,24.13
2022-12-05T21:12:49.133Z,24.10
2022-12-05T21:17:42.146Z,27.80
2022-12-05T21:20:09.028Z,27.42
2022-12-05T21:25:01.057Z,22.67
2022-12-05T21:27:28.380Z,23.02
2022-12-05T21:29:55.864Z,23.10
2022-12-05T21:32:22.496Z,23.20
2022-12-05T21:34:49.117Z,22.77
2022-12-05T21:37:15.932Z,22.92
2022-12-05T21:39:42.561Z,22.73
2022-12-05T21:42:09.242Z,23.60
2022-12-05T21:44:35.885Z,23.45
2022-12-05T21:50:06.085Z,23.77
2022-12-05T21:52:39.460Z,24.00
2022-12-05T21:55:09.858Z,25.65
2022-12-05T21:57:39.431Z,24.17
2022-12-05T22:00:06.994Z,22.80
2022-12-05T22:02:33.799Z,26.20
2022-12-05T22:05:00.466Z,26.23
2022-12-05T22:07:27.468Z,25.63
2022-12-05T22:12:19.565Z,26.75
2022-12-05T22:14:46.289Z,26.80
2022-12-05T22:31:45.506Z,28.75
2022-12-05T22:34:12.234Z,28.08
2022-12-05T22:36:38.870Z,27.83
2022-12-05T22:43:57.804Z,28.65
2022-12-05T22:54:18.474Z,28.20
2022-12-05T22:56:45.342Z,28.60
2022-12-05T23:01:38.065Z,28.88
2022-12-05T23:04:06.064Z,27.92
2022-12-05T23:08:59.037Z,28.90
2022-12-05T23:11:26.419Z,28.13
2022-12-05T23:24:19.526Z,25.88
2022-12-05T23:26:46.366Z,27.70
2022-12-05T23:31:39.296Z,28.42
2022-12-05T23:34:06.225Z,27.23
2022-12-05T23:36:33.569Z,27.05
2022-12-05T23:39:00.448Z,28.23
2022-12-05T23:41:27.589Z,28.35
2022-12-05T23:46:22.214Z,27.33
2022-12-05T23:48:49.098Z,29.40
2022-12-05T23:53:43.680Z,28.80
2022-12-05T23:56:14.628Z,29.08
